Leominster, MA (01453)

10:38 PM EDT on August 23, 2016 (GMT -0400)
Upper Nelson St | | Change Station

Elev 540 ft 42.54 °N, 71.77 °W | Updated 2 seconds ago

Clear
Clear
65.7 °F
Feels Like 65.7 °F
N
0.0
Wind Variable Wind from SW
Gusts 0.0 mph

Today
High -- | Low -- °F
--% Chance of Precip.
Yesterday
High -- | Low -- °F
Precip. -- in
Pressure 30.25 in
Visibility 10.0 miles
Clouds Clear
Dew Point 55 °F
Humidity 69%
Rainfall 0.00 in
Snow Depth Not available.
6:02 AM 7:35 PM
Waning Gibbous, 62% visible
METAR KFIT 240152Z AUTO 00000KT 10SM CLR 20/13 A3025 RMK AO2 SLP241 T02000128
Pressure 30.25 in
Visibility 10.0 miles
Clouds Clear
Dew Point 55 °F
Humidity 69%
Rainfall 0.00 in
Snow Depth Not available.
6:02 AM 7:35 PM
Waning Gibbous, 62% visible
METAR KFIT 240152Z AUTO 00000KT 10SM CLR 20/13 A3025 RMK AO2 SLP241 T02000128

10-Day Weather Forecast

Almanac

Astronomy

Aug. 23, 2016 Rise Set
Actual Time
Civil Twilight
Nautical Twilight
Astronomical Twilight
Moon
Length of Visible Light
Length of Day
Tomorrow will be .
, % of the Moon is Illuminated

Today's Extremes

State Highs State Lows

Community

WunderPhotos

Upload Photos

1,934,528 photos uploaded!

WunderBlog® & News

Nearby

Air Quality

  Air Quality AQ Index Pollutant
Not available.

Snow Depth

Station Depth Elevation

Earthquake Activity

City Distance Mag. Time & Date
Minimum magnitude displayed is 2.5.

Coastal Water Temperatures

Place Temperature

Stations

Nearby Weather Stations

Station Location Temp. Windchill Dew Point Humidity Wind Precip. Elev Updated Type
                   

Watches & Warnings

There are currently no watches in effect.